sensor_id;sensor_type;location;lat;lon;timestamp;temperature;humidity
15450;DHT22;7826;49.784;9.934;2022-12-18T00:00:41;-9.20;63.30
15450;DHT22;7826;49.784;9.934;2022-12-18T00:03:08;-9.10;73.40
15450;DHT22;7826;49.784;9.934;2022-12-18T00:05:35;-9.10;63.30
15450;DHT22;7826;49.784;9.934;2022-12-18T00:08:02;-9.10;84.00
15450;DHT22;7826;49.784;9.934;2022-12-18T00:10:28;-9.10;83.50
15450;DHT22;7826;49.784;9.934;2022-12-18T00:12:55;-9.10;87.50
15450;DHT22;7826;49.784;9.934;2022-12-18T00:15:21;-9.10;83.00
15450;DHT22;7826;49.784;9.934;2022-12-18T00:17:47;-9.20;83.70
15450;DHT22;7826;49.784;9.934;2022-12-18T00:20:14;-9.20;61.40
15450;DHT22;7826;49.784;9.934;2022-12-18T00:22:40;-9.20;81.50
15450;DHT22;7826;49.784;9.934;2022-12-18T00:25:07;-9.20;99.80
15450;DHT22;7826;49.784;9.934;2022-12-18T00:27:33;-9.30;79.60
15450;DHT22;7826;49.784;9.934;2022-12-18T00:29:59;-9.30;96.70
15450;DHT22;7826;49.784;9.934;2022-12-18T00:32:26;-9.30;62.50
15450;DHT22;7826;49.784;9.934;2022-12-18T00:34:52;-9.30;96.50
15450;DHT22;7826;49.784;9.934;2022-12-18T00:37:19;-9.40;71.90
15450;DHT22;7826;49.784;9.934;2022-12-18T00:39:45;-9.40;67.70
15450;DHT22;7826;49.784;9.934;2022-12-18T00:42:11;-9.40;72.60
15450;DHT22;7826;49.784;9.934;2022-12-18T00:44:56;-9.40;75.20
15450;DHT22;7826;49.784;9.934;2022-12-18T00:47:22;-9.40;71.90
15450;DHT22;7826;49.784;9.934;2022-12-18T00:49:48;-9.40;73.50
15450;DHT22;7826;49.784;9.934;2022-12-18T00:52:14;-9.30;32.70
15450;DHT22;7826;49.784;9.934;2022-12-18T00:54:41;-9.30;25.00
15450;DHT22;7826;49.784;9.934;2022-12-18T00:57:07;-9.40;27.70
15450;DHT22;7826;49.784;9.934;2022-12-18T00:59:33;-9.40;6.10
15450;DHT22;7826;49.784;9.934;2022-12-18T01:01:59;-9.40;23.00
15450;DHT22;7826;49.784;9.934;2022-12-18T01:04:25;-9.40;11.70
15450;DHT22;7826;49.784;9.934;2022-12-18T01:06:52;-9.40;4.60
15450;DHT22;7826;49.784;9.934;2022-12-18T01:09:18;-9.30;30.80
15450;DHT22;7826;49.784;9.934;2022-12-18T01:11:44;-9.30;27.00
15450;DHT22;7826;49.784;9.934;2022-12-18T01:14:10;-9.40;1.40
15450;DHT22;7826;49.784;9.934;2022-12-18T01:16:37;-9.30;8.00
15450;DHT22;7826;49.784;9.934;2022-12-18T01:19:03;-9.30;38.80
15450;DHT22;7826;49.784;9.934;2022-12-18T01:21:29;-9.40;41.20
15450;DHT22;7826;49.784;9.934;2022-12-18T01:23:56;-9.40;84.90
15450;DHT22;7826;49.784;9.934;2022-12-18T01:26:24;-9.40;82.10
15450;DHT22;7826;49.784;9.934;2022-12-18T01:28:51;-9.40;70.90
15450;DHT22;7826;49.784;9.934;2022-12-18T01:31:21;-9.40;71.20
15450;DHT22;7826;49.784;9.934;2022-12-18T01:33:48;-9.40;72.20
15450;DHT22;7826;49.784;9.934;2022-12-18T01:36:23;-9.40;70.10
15450;DHT22;7826;49.784;9.934;2022-12-18T01:38:50;-9.40;62.30
15450;DHT22;7826;49.784;9.934;2022-12-18T01:41:18;-9.40;66.10
15450;DHT22;7826;49.784;9.934;2022-12-18T01:46:14;-9.40;72.20
15450;DHT22;7826;49.784;9.934;2022-12-18T01:48:40;-9.30;68.30
15450;DHT22;7826;49.784;9.934;2022-12-18T01:51:09;-9.30;71.10
15450;DHT22;7826;49.784;9.934;2022-12-18T01:53:37;-9.40;60.70
15450;DHT22;7826;49.784;9.934;2022-12-18T01:56:03;-9.40;63.10
15450;DHT22;7826;49.784;9.934;2022-12-18T01:58:46;-9.50;60.70
15450;DHT22;7826;49.784;9.934;2022-12-18T02:01:14;-9.50;56.60
15450;DHT22;7826;49.784;9.934;2022-12-18T02:03:42;-9.50;57.80
15450;DHT22;7826;49.784;9.934;2022-12-18T02:06:20;-9.50;60.70
15450;DHT22;7826;49.784;9.934;2022-12-18T02:08:51;-9.50;59.10
15450;DHT22;7826;49.784;9.934;2022-12-18T02:16:54;-9.50;61.10
15450;DHT22;7826;49.784;9.934;2022-12-18T02:19:42;-9.50;59.40
15450;DHT22;7826;49.784;9.934;2022-12-18T02:25:12;-9.60;47.30
15450;DHT22;7826;49.784;9.934;2022-12-18T02:27:44;-9.60;60.00
15450;DHT22;7826;49.784;9.934;2022-12-18T02:30:13;-9.60;54.70
15450;DHT22;7826;49.784;9.934;2022-12-18T02:32:45;-9.60;58.80
15450;DHT22;7826;49.784;9.934;2022-12-18T02:35:16;-9.70;69.70
15450;DHT22;7826;49.784;9.934;2022-12-18T02:37:45;-9.70;63.20
15450;DHT22;7826;49.784;9.934;2022-12-18T02:40:14;-9.80;66.30
15450;DHT22;7826;49.784;9.934;2022-12-18T02:42:41;-9.70;65.40
15450;DHT22;7826;49.784;9.934;2022-12-18T02:45:09;-9.70;63.90
15450;DHT22;7826;49.784;9.934;2022-12-18T02:47:41;-9.70;59.90
15450;DHT22;7826;49.784;9.934;2022-12-18T02:50:43;-9.70;61.30
15450;DHT22;7826;49.784;9.934;2022-12-18T03:01:43;-9.80;58.70
15450;DHT22;7826;49.784;9.934;2022-12-18T03:04:30;-9.80;55.40
15450;DHT22;7826;49.784;9.934;2022-12-18T03:07:03;-9.80;55.10
15450;DHT22;7826;49.784;9.934;2022-12-18T03:09:34;-9.80;59.50
15450;DHT22;7826;49.784;9.934;2022-12-18T03:12:15;-9.90;62.60
15450;DHT22;7826;49.784;9.934;2022-12-18T03:17:48;-9.80;60.80
15450;DHT22;7826;49.784;9.934;2022-12-18T03:20:19;-9.90;59.60
15450;DHT22;7826;49.784;9.934;2022-12-18T03:22:51;-9.90;59.00
15450;DHT22;7826;49.784;9.934;2022-12-18T03:25:19;-9.90;25.60
15450;DHT22;7826;49.784;9.934;2022-12-18T03:27:49;-10.00;55.50
15450;DHT22;7826;49.784;9.934;2022-12-18T03:30:18;-9.90;56.30
15450;DHT22;7826;49.784;9.934;2022-12-18T03:35:35;-10.00;56.60
15450;DHT22;7826;49.784;9.934;2022-12-18T03:38:03;-10.00;57.20
15450;DHT22;7826;49.784;9.934;2022-12-18T03:40:41;-10.00;49.30
15450;DHT22;7826;49.784;9.934;2022-12-18T03:46:33;-10.10;45.30
15450;DHT22;7826;49.784;9.934;2022-12-18T03:49:19;-10.20;48.10
15450;DHT22;7826;49.784;9.934;2022-12-18T03:52:12;-10.20;50.60
15450;DHT22;7826;49.784;9.934;2022-12-18T03:54:41;-10.20;48.30
15450;DHT22;7826;49.784;9.934;2022-12-18T03:57:19;-10.20;51.10
15450;DHT22;7826;49.784;9.934;2022-12-18T03:59:51;-10.20;53.20
15450;DHT22;7826;49.784;9.934;2022-12-18T04:02:24;-10.20;46.60
15450;DHT22;7826;49.784;9.934;2022-12-18T04:04:53;-9.70;56.70
15450;DHT22;7826;49.784;9.934;2022-12-18T04:07:26;-10.20;56.60
15450;DHT22;7826;49.784;9.934;2022-12-18T04:10:12;-10.20;56.10
15450;DHT22;7826;49.784;9.934;2022-12-18T04:12:39;-10.00;51.70
15450;DHT22;7826;49.784;9.934;2022-12-18T04:15:07;-10.20;54.50
15450;DHT22;7826;49.784;9.934;2022-12-18T04:17:36;-10.20;53.10
15450;DHT22;7826;49.784;9.934;2022-12-18T04:20:03;-10.30;51.20
15450;DHT22;7826;49.784;9.934;2022-12-18T04:22:30;-10.20;51.30
15450;DHT22;7826;49.784;9.934;2022-12-18T04:24:56;-10.30;50.70
15450;DHT22;7826;49.784;9.934;2022-12-18T04:27:23;-10.30;49.00
15450;DHT22;7826;49.784;9.934;2022-12-18T04:29:49;-10.30;50.50
15450;DHT22;7826;49.784;9.934;2022-12-18T04:32:15;-10.40;44.90
15450;DHT22;7826;49.784;9.934;2022-12-18T04:34:42;-10.40;25.90
15450;DHT22;7826;49.784;9.934;2022-12-18T04:37:08;-10.40;53.50
15450;DHT22;7826;49.784;9.934;2022-12-18T04:39:34;-10.40;52.30
15450;DHT22;7826;49.784;9.934;2022-12-18T04:42:01;-10.50;46.80
15450;DHT22;7826;49.784;9.934;2022-12-18T04:44:27;-10.50;50.90
15450;DHT22;7826;49.784;9.934;2022-12-18T04:46:54;-10.50;51.40
15450;DHT22;7826;49.784;9.934;2022-12-18T04:49:20;-10.50;51.70
15450;DHT22;7826;49.784;9.934;2022-12-18T04:51:46;-10.50;50.90
15450;DHT22;7826;49.784;9.934;2022-12-18T04:54:12;-10.50;48.60
15450;DHT22;7826;49.784;9.934;2022-12-18T04:56:39;-10.50;48.80
15450;DHT22;7826;49.784;9.934;2022-12-18T04:59:05;-10.50;51.70
15450;DHT22;7826;49.784;9.934;2022-12-18T05:01:33;-10.50;52.70
15450;DHT22;7826;49.784;9.934;2022-12-18T05:04:00;-10.50;48.50
15450;DHT22;7826;49.784;9.934;2022-12-18T05:06:26;-10.50;46.30
15450;DHT22;7826;49.784;9.934;2022-12-18T05:08:52;-10.50;49.40
15450;DHT22;7826;49.784;9.934;2022-12-18T05:11:18;-10.50;48.90
15450;DHT22;7826;49.784;9.934;2022-12-18T05:13:45;-10.60;46.90
15450;DHT22;7826;49.784;9.934;2022-12-18T05:16:12;-10.60;44.50
15450;DHT22;7826;49.784;9.934;2022-12-18T05:18:39;-10.60;50.20
15450;DHT22;7826;49.784;9.934;2022-12-18T05:21:05;-10.70;44.50
15450;DHT22;7826;49.784;9.934;2022-12-18T05:23:32;-10.70;47.00
15450;DHT22;7826;49.784;9.934;2022-12-18T05:26:04;-10.70;46.10
15450;DHT22;7826;49.784;9.934;2022-12-18T05:28:33;-10.70;49.40
15450;DHT22;7826;49.784;9.934;2022-12-18T05:31:01;-10.70;43.60
15450;DHT22;7826;49.784;9.934;2022-12-18T05:33:33;-10.80;44.70
15450;DHT22;7826;49.784;9.934;2022-12-18T05:36:02;-10.80;44.20
15450;DHT22;7826;49.784;9.934;2022-12-18T05:38:29;-10.80;44.00
15450;DHT22;7826;49.784;9.934;2022-12-18T05:40:57;-10.80;39.60
15450;DHT22;7826;49.784;9.934;2022-12-18T05:43:25;-10.90;43.40
15450;DHT22;7826;49.784;9.934;2022-12-18T05:45:52;-10.90;51.30
15450;DHT22;7826;49.784;9.934;2022-12-18T05:48:19;-10.90;45.70
15450;DHT22;7826;49.784;9.934;2022-12-18T05:50:47;-10.90;46.20
15450;DHT22;7826;49.784;9.934;2022-12-18T05:53:15;-10.90;44.40
15450;DHT22;7826;49.784;9.934;2022-12-18T05:55:43;-10.90;45.00
15450;DHT22;7826;49.784;9.934;2022-12-18T05:58:11;-10.90;46.40
15450;DHT22;7826;49.784;9.934;2022-12-18T06:00:39;-10.90;47.50
15450;DHT22;7826;49.784;9.934;2022-12-18T06:03:07;-10.80;49.40
15450;DHT22;7826;49.784;9.934;2022-12-18T06:05:44;-10.90;46.70
15450;DHT22;7826;49.784;9.934;2022-12-18T06:08:12;-11.00;52.10
15450;DHT22;7826;49.784;9.934;2022-12-18T06:10:39;-10.90;31.30
15450;DHT22;7826;49.784;9.934;2022-12-18T06:13:06;-10.90;5.20
15450;DHT22;7826;49.784;9.934;2022-12-18T06:15:32;-10.90;7.10
15450;DHT22;7826;49.784;9.934;2022-12-18T06:18:00;-10.90;1.50
15450;DHT22;7826;49.784;9.934;2022-12-18T06:20:27;-10.90;4.20
15450;DHT22;7826;49.784;9.934;2022-12-18T06:22:53;-10.90;15.20
15450;DHT22;7826;49.784;9.934;2022-12-18T06:25:19;-10.90;18.50
15450;DHT22;7826;49.784;9.934;2022-12-18T06:27:47;-10.90;17.30
15450;DHT22;7826;49.784;9.934;2022-12-18T06:30:14;-10.90;9.70
15450;DHT22;7826;49.784;9.934;2022-12-18T06:32:40;-10.80;16.30
15450;DHT22;7826;49.784;9.934;2022-12-18T06:35:06;-10.70;15.40
15450;DHT22;7826;49.784;9.934;2022-12-18T06:37:33;-10.60;6.70
15450;DHT22;7826;49.784;9.934;2022-12-18T06:39:59;-10.50;16.00
15450;DHT22;7826;49.784;9.934;2022-12-18T06:42:28;-10.40;21.50
15450;DHT22;7826;49.784;9.934;2022-12-18T06:44:54;-10.30;14.60
15450;DHT22;7826;49.784;9.934;2022-12-18T06:47:20;-10.30;15.50
15450;DHT22;7826;49.784;9.934;2022-12-18T06:49:46;-10.30;21.90
15450;DHT22;7826;49.784;9.934;2022-12-18T06:52:12;-10.20;16.90
15450;DHT22;7826;49.784;9.934;2022-12-18T06:54:39;-10.10;23.80
15450;DHT22;7826;49.784;9.934;2022-12-18T06:57:05;-10.00;21.80
15450;DHT22;7826;49.784;9.934;2022-12-18T06:59:31;-9.90;22.50
15450;DHT22;7826;49.784;9.934;2022-12-18T07:01:58;-9.80;24.90
15450;DHT22;7826;49.784;9.934;2022-12-18T07:04:31;-9.80;21.00
15450;DHT22;7826;49.784;9.934;2022-12-18T07:06:58;-9.30;19.40
15450;DHT22;7826;49.784;9.934;2022-12-18T07:09:24;-9.60;38.70
15450;DHT22;7826;49.784;9.934;2022-12-18T07:11:50;-9.40;21.80
15450;DHT22;7826;49.784;9.934;2022-12-18T07:14:17;-9.30;28.00
15450;DHT22;7826;49.784;9.934;2022-12-18T07:16:43;-9.20;41.20
15450;DHT22;7826;49.784;9.934;2022-12-18T07:19:09;-9.10;38.10
15450;DHT22;7826;49.784;9.934;2022-12-18T07:21:35;-9.00;31.60
15450;DHT22;7826;49.784;9.934;2022-12-18T07:24:02;-8.90;39.00
15450;DHT22;7826;49.784;9.934;2022-12-18T07:26:28;-8.80;42.10
15450;DHT22;7826;49.784;9.934;2022-12-18T07:28:55;-8.70;31.40
15450;DHT22;7826;49.784;9.934;2022-12-18T07:31:22;-8.60;48.60
15450;DHT22;7826;49.784;9.934;2022-12-18T07:33:49;-8.50;41.70
15450;DHT22;7826;49.784;9.934;2022-12-18T07:36:16;-8.40;39.10
15450;DHT22;7826;49.784;9.934;2022-12-18T07:38:42;-8.30;57.10
15450;DHT22;7826;49.784;9.934;2022-12-18T07:41:11;-8.20;54.10
15450;DHT22;7826;49.784;9.934;2022-12-18T07:43:39;-8.10;61.10
15450;DHT22;7826;49.784;9.934;2022-12-18T07:46:06;-8.00;54.30
15450;DHT22;7826;49.784;9.934;2022-12-18T07:48:32;-7.90;68.80
15450;DHT22;7826;49.784;9.934;2022-12-18T07:51:03;-7.80;68.50
15450;DHT22;7826;49.784;9.934;2022-12-18T07:53:30;-7.80;72.20
15450;DHT22;7826;49.784;9.934;2022-12-18T07:56:02;-7.70;41.20
15450;DHT22;7826;49.784;9.934;2022-12-18T07:58:29;-7.80;87.90
15450;DHT22;7826;49.784;9.934;2022-12-18T08:01:07;-7.70;74.50
15450;DHT22;7826;49.784;9.934;2022-12-18T08:03:33;-7.70;83.70
15450;DHT22;7826;49.784;9.934;2022-12-18T08:06:04;-7.70;91.80
15450;DHT22;7826;49.784;9.934;2022-12-18T08:08:31;-7.60;88.70
15450;DHT22;7826;49.784;9.934;2022-12-18T08:10:58;-7.50;93.50
15450;DHT22;7826;49.784;9.934;2022-12-18T08:13:24;-7.50;84.90
15450;DHT22;7826;49.784;9.934;2022-12-18T08:16:03;-7.50;88.00
15450;DHT22;7826;49.784;9.934;2022-12-18T08:18:29;-7.50;99.90
15450;DHT22;7826;49.784;9.934;2022-12-18T08:21:11;-7.40;79.90
15450;DHT22;7826;49.784;9.934;2022-12-18T08:23:38;-7.40;99.90
15450;DHT22;7826;49.784;9.934;2022-12-18T08:26:04;-7.30;99.90
15450;DHT22;7826;49.784;9.934;2022-12-18T08:28:31;-7.20;99.90
15450;DHT22;7826;49.784;9.934;2022-12-18T08:30:57;-7.20;99.90
15450;DHT22;7826;49.784;9.934;2022-12-18T08:33:23;-7.10;79.80
15450;DHT22;7826;49.784;9.934;2022-12-18T08:35:50;-7.10;82.90
15450;DHT22;7826;49.784;9.934;2022-12-18T08:38:16;-7.00;99.90
15450;DHT22;7826;49.784;9.934;2022-12-18T08:40:42;-6.90;99.90
15450;DHT22;7826;49.784;9.934;2022-12-18T08:43:11;-6.80;74.70
15450;DHT22;7826;49.784;9.934;2022-12-18T08:45:56;-6.70;99.90
15450;DHT22;7826;49.784;9.934;2022-12-18T08:48:23;-6.70;99.90
15450;DHT22;7826;49.784;9.934;2022-12-18T08:50:56;-6.60;99.90
15450;DHT22;7826;49.784;9.934;2022-12-18T08:53:23;-6.60;99.90
15450;DHT22;7826;49.784;9.934;2022-12-18T08:55:50;-6.50;99.90
15450;DHT22;7826;49.784;9.934;2022-12-18T08:58:16;-6.50;99.90
15450;DHT22;7826;49.784;9.934;2022-12-18T09:00:42;-6.40;99.90
15450;DHT22;7826;49.784;9.934;2022-12-18T09:03:13;-6.30;99.90
15450;DHT22;7826;49.784;9.934;2022-12-18T09:05:40;-6.30;89.90
15450;DHT22;7826;49.784;9.934;2022-12-18T09:08:07;-6.30;99.90
15450;DHT22;7826;49.784;9.934;2022-12-18T09:10:33;-6.10;99.90
15450;DHT22;7826;49.784;9.934;2022-12-18T09:13:00;-6.00;99.90
15450;DHT22;7826;49.784;9.934;2022-12-18T09:17:54;-5.90;99.90
15450;DHT22;7826;49.784;9.934;2022-12-18T09:20:20;-5.80;99.90
15450;DHT22;7826;49.784;9.934;2022-12-18T09:22:47;-5.80;99.90
15450;DHT22;7826;49.784;9.934;2022-12-18T09:25:13;-5.80;99.90
15450;DHT22;7826;49.784;9.934;2022-12-18T09:27:40;-5.80;99.90
15450;DHT22;7826;49.784;9.934;2022-12-18T09:30:06;-5.70;99.90
15450;DHT22;7826;49.784;9.934;2022-12-18T09:32:33;-5.60;94.90
15450;DHT22;7826;49.784;9.934;2022-12-18T09:34:59;-5.60;90.00
15450;DHT22;7826;49.784;9.934;2022-12-18T09:37:26;-5.60;94.60
15450;DHT22;7826;49.784;9.934;2022-12-18T09:39:52;-5.50;92.50
15450;DHT22;7826;49.784;9.934;2022-12-18T09:42:22;-5.40;92.10
15450;DHT22;7826;49.784;9.934;2022-12-18T09:44:52;-5.40;94.90
15450;DHT22;7826;49.784;9.934;2022-12-18T09:49:47;-5.10;99.90
15450;DHT22;7826;49.784;9.934;2022-12-18T09:54:42;-4.80;99.90
15450;DHT22;7826;49.784;9.934;2022-12-18T09:57:18;-4.70;98.40
15450;DHT22;7826;49.784;9.934;2022-12-18T09:59:51;-4.50;99.90
15450;DHT22;7826;49.784;9.934;2022-12-18T10:02:21;-4.40;96.80
15450;DHT22;7826;49.784;9.934;2022-12-18T10:05:05;-4.30;99.90
15450;DHT22;7826;49.784;9.934;2022-12-18T10:07:53;-4.30;98.50
15450;DHT22;7826;49.784;9.934;2022-12-18T10:10:52;-4.30;96.20
15450;DHT22;7826;49.784;9.934;2022-12-18T10:13:23;-4.30;96.10
15450;DHT22;7826;49.784;9.934;2022-12-18T10:15:58;-4.10;99.30
15450;DHT22;7826;49.784;9.934;2022-12-18T10:21:17;-4.00;99.90
15450;DHT22;7826;49.784;9.934;2022-12-18T10:26:42;-4.00;99.90
15450;DHT22;7826;49.784;9.934;2022-12-18T10:29:14;-3.90;99.90
15450;DHT22;7826;49.784;9.934;2022-12-18T10:31:41;-3.80;99.90
15450;DHT22;7826;49.784;9.934;2022-12-18T10:34:11;-3.80;99.90
15450;DHT22;7826;49.784;9.934;2022-12-18T10:36:42;-3.70;99.90
15450;DHT22;7826;49.784;9.934;2022-12-18T10:39:17;-3.70;99.90
15450;DHT22;7826;49.784;9.934;2022-12-18T10:41:43;-3.60;99.90
15450;DHT22;7826;49.784;9.934;2022-12-18T10:44:20;-3.50;99.90
15450;DHT22;7826;49.784;9.934;2022-12-18T10:46:54;-3.60;99.90
15450;DHT22;7826;49.784;9.934;2022-12-18T10:49:30;-3.60;99.90
15450;DHT22;7826;49.784;9.934;2022-12-18T10:52:16;-3.70;99.90
15450;DHT22;7826;49.784;9.934;2022-12-18T10:54:58;-3.60;99.90
15450;DHT22;7826;49.784;9.934;2022-12-18T10:57:38;-3.60;99.90
15450;DHT22;7826;49.784;9.934;2022-12-18T11:00:22;-3.50;99.90
15450;DHT22;7826;49.784;9.934;2022-12-18T11:02:50;-3.40;99.90
15450;DHT22;7826;49.784;9.934;2022-12-18T11:05:25;-3.30;99.90
15450;DHT22;7826;49.784;9.934;2022-12-18T11:07:51;-3.20;99.90
15450;DHT22;7826;49.784;9.934;2022-12-18T11:10:22;-3.20;99.90
15450;DHT22;7826;49.784;9.934;2022-12-18T11:12:49;-3.30;99.90
15450;DHT22;7826;49.784;9.934;2022-12-18T11:15:35;-3.20;99.90
15450;DHT22;7826;49.784;9.934;2022-12-18T11:18:02;-3.30;99.90
15450;DHT22;7826;49.784;9.934;2022-12-18T11:20:34;-3.20;99.90
15450;DHT22;7826;49.784;9.934;2022-12-18T11:23:11;-3.20;99.90
15450;DHT22;7826;49.784;9.934;2022-12-18T11:25:39;-3.10;99.90
15450;DHT22;7826;49.784;9.934;2022-12-18T11:28:46;-3.00;99.90
15450;DHT22;7826;49.784;9.934;2022-12-18T11:31:29;-3.00;99.90
15450;DHT22;7826;49.784;9.934;2022-12-18T11:34:28;-2.90;99.90
15450;DHT22;7826;49.784;9.934;2022-12-18T11:36:58;-2.80;99.90
15450;DHT22;7826;49.784;9.934;2022-12-18T11:42:41;-2.60;99.90
15450;DHT22;7826;49.784;9.934;2022-12-18T11:47:47;-2.60;99.90
15450;DHT22;7826;49.784;9.934;2022-12-18T11:50:22;-2.50;99.90
15450;DHT22;7826;49.784;9.934;2022-12-18T11:52:49;-2.40;99.90
15450;DHT22;7826;49.784;9.934;2022-12-18T12:01:13;-2.40;99.90
15450;DHT22;7826;49.784;9.934;2022-12-18T12:14:57;-2.50;99.90
15450;DHT22;7826;49.784;9.934;2022-12-18T12:23:05;-2.30;99.90
15450;DHT22;7826;49.784;9.934;2022-12-18T12:25:47;-2.10;99.90
15450;DHT22;7826;49.784;9.934;2022-12-18T12:38:53;-2.00;99.90
15450;DHT22;7826;49.784;9.934;2022-12-18T12:41:24;-2.00;99.90
15450;DHT22;7826;49.784;9.934;2022-12-18T12:44:16;-2.00;99.90
15450;DHT22;7826;49.784;9.934;2022-12-18T12:46:46;-2.00;99.90
15450;DHT22;7826;49.784;9.934;2022-12-18T12:49:16;-2.00;99.90
15450;DHT22;7826;49.784;9.934;2022-12-18T12:51:47;-2.00;99.90
15450;DHT22;7826;49.784;9.934;2022-12-18T12:54:19;-2.00;99.90
15450;DHT22;7826;49.784;9.934;2022-12-18T12:57:24;-2.00;99.90
15450;DHT22;7826;49.784;9.934;2022-12-18T13:00:10;-1.90;99.90
15450;DHT22;7826;49.784;9.934;2022-12-18T13:02:47;-1.90;99.90
15450;DHT22;7826;49.784;9.934;2022-12-18T13:10:39;-1.90;99.90
15450;DHT22;7826;49.784;9.934;2022-12-18T13:13:11;-1.90;99.30
15450;DHT22;7826;49.784;9.934;2022-12-18T13:15:43;-1.90;99.90
15450;DHT22;7826;49.784;9.934;2022-12-18T13:18:11;-1.90;99.20
15450;DHT22;7826;49.784;9.934;2022-12-18T13:20:40;-1.90;99.90
15450;DHT22;7826;49.784;9.934;2022-12-18T13:34:23;-1.80;95.90
15450;DHT22;7826;49.784;9.934;2022-12-18T13:36:51;-1.80;98.00
15450;DHT22;7826;49.784;9.934;2022-12-18T13:41:46;-1.80;94.80
15450;DHT22;7826;49.784;9.934;2022-12-18T13:44:40;-1.80;99.90
15450;DHT22;7826;49.784;9.934;2022-12-18T13:49:56;-1.70;98.10
15450;DHT22;7826;49.784;9.934;2022-12-18T13:52:27;-1.80;99.90
15450;DHT22;7826;49.784;9.934;2022-12-18T13:54:56;-1.80;99.50
15450;DHT22;7826;49.784;9.934;2022-12-18T13:57:38;-1.80;99.20
15450;DHT22;7826;49.784;9.934;2022-12-18T14:02:49;-1.80;93.60
15450;DHT22;7826;49.784;9.934;2022-12-18T14:07:50;-1.80;98.70
15450;DHT22;7826;49.784;9.934;2022-12-18T14:10:16;-1.80;99.90
15450;DHT22;7826;49.784;9.934;2022-12-18T14:12:48;-1.80;99.90
15450;DHT22;7826;49.784;9.934;2022-12-18T14:17:57;-1.80;99.90
15450;DHT22;7826;49.784;9.934;2022-12-18T14:20:25;-1.80;99.90
15450;DHT22;7826;49.784;9.934;2022-12-18T14:22:52;-1.90;94.90
15450;DHT22;7826;49.784;9.934;2022-12-18T14:27:51;-1.90;83.40
15450;DHT22;7826;49.784;9.934;2022-12-18T14:33:24;-1.90;99.90
15450;DHT22;7826;49.784;9.934;2022-12-18T14:36:00;-1.90;96.10
15450;DHT22;7826;49.784;9.934;2022-12-18T14:41:17;-1.90;99.90
15450;DHT22;7826;49.784;9.934;2022-12-18T14:43:46;-1.90;99.20
15450;DHT22;7826;49.784;9.934;2022-12-18T14:48:57;-2.00;74.70
15450;DHT22;7826;49.784;9.934;2022-12-18T14:51:25;-2.00;99.90
15450;DHT22;7826;49.784;9.934;2022-12-18T14:54:00;-2.00;95.70
15450;DHT22;7826;49.784;9.934;2022-12-18T14:56:32;-2.00;99.90
15450;DHT22;7826;49.784;9.934;2022-12-18T15:01:33;-2.10;77.50
15450;DHT22;7826;49.784;9.934;2022-12-18T15:04:02;-2.10;79.80
15450;DHT22;7826;49.784;9.934;2022-12-18T15:06:34;-2.10;99.90
15450;DHT22;7826;49.784;9.934;2022-12-18T15:09:23;-2.10;99.90
15450;DHT22;7826;49.784;9.934;2022-12-18T15:11:48;-2.20;99.50
15450;DHT22;7826;49.784;9.934;2022-12-18T15:16:59;-2.10;95.00
15450;DHT22;7826;49.784;9.934;2022-12-18T15:19:41;-2.20;97.40
15450;DHT22;7826;49.784;9.934;2022-12-18T15:22:37;-2.20;99.90
15450;DHT22;7826;49.784;9.934;2022-12-18T15:25:26;-2.20;81.70
15450;DHT22;7826;49.784;9.934;2022-12-18T15:27:54;-2.20;99.90
15450;DHT22;7826;49.784;9.934;2022-12-18T15:30:22;-2.30;99.90
15450;DHT22;7826;49.784;9.934;2022-12-18T15:32:50;-2.30;85.10
15450;DHT22;7826;49.784;9.934;2022-12-18T15:35:22;-2.20;83.70
15450;DHT22;7826;49.784;9.934;2022-12-18T15:37:50;-2.30;79.30
15450;DHT22;7826;49.784;9.934;2022-12-18T15:40:20;-2.30;87.90
15450;DHT22;7826;49.784;9.934;2022-12-18T15:42:47;-2.30;94.70
15450;DHT22;7826;49.784;9.934;2022-12-18T15:45:33;-2.30;85.90
15450;DHT22;7826;49.784;9.934;2022-12-18T15:48:00;-2.30;96.40
15450;DHT22;7826;49.784;9.934;2022-12-18T15:50:26;-2.30;97.00
15450;DHT22;7826;49.784;9.934;2022-12-18T15:52:54;-2.30;96.80
15450;DHT22;7826;49.784;9.934;2022-12-18T15:55:23;-2.30;87.80
15450;DHT22;7826;49.784;9.934;2022-12-18T15:58:10;-2.00;83.70
15450;DHT22;7826;49.784;9.934;2022-12-18T16:00:38;-2.30;94.30
15450;DHT22;7826;49.784;9.934;2022-12-18T16:03:05;-2.30;99.20
15450;DHT22;7826;49.784;9.934;2022-12-18T16:05:32;-2.30;99.90
15450;DHT22;7826;49.784;9.934;2022-12-18T16:08:01;-2.10;99.90
15450;DHT22;7826;49.784;9.934;2022-12-18T16:10:29;-2.30;87.00
15450;DHT22;7826;49.784;9.934;2022-12-18T16:12:55;-2.30;91.60
15450;DHT22;7826;49.784;9.934;2022-12-18T16:15:22;-2.30;88.70
15450;DHT22;7826;49.784;9.934;2022-12-18T16:17:48;-2.30;99.90
15450;DHT22;7826;49.784;9.934;2022-12-18T16:20:19;-2.30;85.00
15450;DHT22;7826;49.784;9.934;2022-12-18T16:22:47;-2.30;93.50
15450;DHT22;7826;49.784;9.934;2022-12-18T16:25:24;-2.20;90.10
15450;DHT22;7826;49.784;9.934;2022-12-18T16:27:51;-2.30;94.30
15450;DHT22;7826;49.784;9.934;2022-12-18T16:30:21;-2.30;93.40
15450;DHT22;7826;49.784;9.934;2022-12-18T16:32:47;-2.30;92.80
15450;DHT22;7826;49.784;9.934;2022-12-18T16:35:15;-2.30;90.80
15450;DHT22;7826;49.784;9.934;2022-12-18T16:37:42;-2.30;87.70
15450;DHT22;7826;49.784;9.934;2022-12-18T16:40:11;-2.30;99.90
15450;DHT22;7826;49.784;9.934;2022-12-18T16:42:39;-2.30;99.90
15450;DHT22;7826;49.784;9.934;2022-12-18T16:45:07;-2.30;99.20
15450;DHT22;7826;49.784;9.934;2022-12-18T16:47:34;-2.30;99.90
15450;DHT22;7826;49.784;9.934;2022-12-18T16:50:01;-2.30;99.90
15450;DHT22;7826;49.784;9.934;2022-12-18T16:52:27;-2.40;99.90
15450;DHT22;7826;49.784;9.934;2022-12-18T16:54:53;-2.40;99.90
15450;DHT22;7826;49.784;9.934;2022-12-18T16:57:20;-2.30;99.90
15450;DHT22;7826;49.784;9.934;2022-12-18T16:59:47;-2.40;99.90
15450;DHT22;7826;49.784;9.934;2022-12-18T17:02:19;-2.30;99.90
15450;DHT22;7826;49.784;9.934;2022-12-18T17:04:47;-2.40;98.60
15450;DHT22;7826;49.784;9.934;2022-12-18T17:07:14;-2.40;90.70
15450;DHT22;7826;49.784;9.934;2022-12-18T17:09:41;-2.40;99.90
15450;DHT22;7826;49.784;9.934;2022-12-18T17:12:07;-2.40;99.20
15450;DHT22;7826;49.784;9.934;2022-12-18T17:14:35;-2.50;99.90
15450;DHT22;7826;49.784;9.934;2022-12-18T17:17:02;-2.50;99.90
15450;DHT22;7826;49.784;9.934;2022-12-18T17:19:28;-2.50;99.90
15450;DHT22;7826;49.784;9.934;2022-12-18T17:21:55;-2.50;99.90
15450;DHT22;7826;49.784;9.934;2022-12-18T17:24:21;-2.50;66.50
15450;DHT22;7826;49.784;9.934;2022-12-18T17:26:48;-2.50;62.10
15450;DHT22;7826;49.784;9.934;2022-12-18T17:29:17;-2.50;93.40
15450;DHT22;7826;49.784;9.934;2022-12-18T17:31:45;-2.60;91.80
15450;DHT22;7826;49.784;9.934;2022-12-18T17:34:13;-2.60;99.90
15450;DHT22;7826;49.784;9.934;2022-12-18T17:36:39;-2.60;99.90
15450;DHT22;7826;49.784;9.934;2022-12-18T17:39:07;-2.60;99.60
15450;DHT22;7826;49.784;9.934;2022-12-18T17:41:33;-2.60;97.20
15450;DHT22;7826;49.784;9.934;2022-12-18T17:44:04;-2.60;99.90
15450;DHT22;7826;49.784;9.934;2022-12-18T17:46:33;-2.60;99.90
15450;DHT22;7826;49.784;9.934;2022-12-18T17:49:00;-2.70;99.90
15450;DHT22;7826;49.784;9.934;2022-12-18T17:51:28;-2.70;98.20
15450;DHT22;7826;49.784;9.934;2022-12-18T17:53:54;-2.70;99.90
15450;DHT22;7826;49.784;9.934;2022-12-18T17:56:22;-2.70;99.90
15450;DHT22;7826;49.784;9.934;2022-12-18T17:58:49;-2.50;98.80
15450;DHT22;7826;49.784;9.934;2022-12-18T18:01:18;-2.70;99.90
15450;DHT22;7826;49.784;9.934;2022-12-18T18:03:45;-2.70;99.90
15450;DHT22;7826;49.784;9.934;2022-12-18T18:06:12;-2.70;99.90